createdAt,value
2023-01-15T00:00:28.793Z,11.12
2023-01-15T00:02:55.932Z,11.15
2023-01-15T00:05:24.386Z,11.13
2023-01-15T00:07:52.127Z,11.16
2023-01-15T00:10:18.590Z,11.20
2023-01-15T00:12:44.991Z,11.18
2023-01-15T00:15:14.301Z,11.18
2023-01-15T00:17:40.968Z,11.21
2023-01-15T00:20:08.145Z,11.21
2023-01-15T00:22:34.535Z,11.22
2023-01-15T00:25:19.514Z,11.22
2023-01-15T00:27:45.989Z,11.21
2023-01-15T00:30:14.789Z,11.24
2023-01-15T00:32:41.850Z,11.25
2023-01-15T00:35:12.824Z,11.27
2023-01-15T00:37:39.224Z,11.25
2023-01-15T00:40:06.070Z,11.27
2023-01-15T00:42:32.490Z,11.27
2023-01-15T00:44:59.015Z,11.28
2023-01-15T00:47:25.695Z,11.27
2023-01-15T00:49:52.150Z,11.30
2023-01-15T00:52:18.569Z,11.29
2023-01-15T00:54:45.324Z,11.28
2023-01-15T00:57:11.759Z,11.30
2023-01-15T00:59:38.281Z,11.30
2023-01-15T01:02:05.012Z,11.30
2023-01-15T01:04:31.527Z,11.32
2023-01-15T01:06:58.101Z,11.30
2023-01-15T01:09:24.626Z,11.31
2023-01-15T01:11:51.103Z,11.31
2023-01-15T01:14:17.608Z,11.30
2023-01-15T01:16:44.138Z,11.32
2023-01-15T01:19:18.446Z,11.31
2023-01-15T01:21:45.431Z,11.31
2023-01-15T01:24:14.087Z,11.30
2023-01-15T01:26:40.960Z,11.27
2023-01-15T01:29:07.523Z,11.26
2023-01-15T01:31:34.051Z,11.25
2023-01-15T01:34:00.685Z,11.22
2023-01-15T01:36:38.073Z,11.22
2023-01-15T01:39:05.735Z,11.23
2023-01-15T01:41:32.879Z,11.22
2023-01-15T01:44:08.988Z,11.23
2023-01-15T01:46:36.230Z,11.21
2023-01-15T01:49:05.267Z,11.20
2023-01-15T01:51:36.112Z,11.18
2023-01-15T01:54:03.063Z,11.19
2023-01-15T01:56:30.947Z,11.21
2023-01-15T01:58:57.410Z,11.19
2023-01-15T02:01:25.603Z,11.18
2023-01-15T02:03:53.376Z,11.15
2023-01-15T02:06:19.931Z,11.16
2023-01-15T02:08:46.378Z,11.21
2023-01-15T02:11:18.233Z,11.22
2023-01-15T02:13:53.515Z,11.21
2023-01-15T02:16:24.206Z,11.20
2023-01-15T02:19:16.679Z,11.19
2023-01-15T02:22:15.503Z,11.15
2023-01-15T02:25:00.663Z,11.13
2023-01-15T02:27:27.898Z,10.94
2023-01-15T02:30:10.836Z,10.69
2023-01-15T02:32:45.505Z,10.61
2023-01-15T02:35:34.803Z,10.38
2023-01-15T02:38:05.637Z,10.28
2023-01-15T02:40:32.808Z,10.07
2023-01-15T02:42:59.447Z,10.03
2023-01-15T02:45:29.431Z,9.85
2023-01-15T02:47:58.661Z,9.65
2023-01-15T02:50:35.909Z,9.55
2023-01-15T02:53:05.816Z,9.46
2023-01-15T02:55:35.528Z,9.27
2023-01-15T02:58:05.153Z,9.28
2023-01-15T03:00:34.305Z,9.16
2023-01-15T03:03:28.564Z,9.02
2023-01-15T03:06:02.347Z,8.98
2023-01-15T03:08:29.255Z,8.92
2023-01-15T03:10:58.632Z,8.71
2023-01-15T03:13:31.996Z,8.60
2023-01-15T03:16:22.312Z,8.59
2023-01-15T03:18:53.899Z,8.50
2023-01-15T03:21:23.379Z,8.49
2023-01-15T03:23:52.621Z,8.45
2023-01-15T03:26:19.308Z,8.45
2023-01-15T03:28:46.765Z,8.43
2023-01-15T03:31:13.271Z,8.38
2023-01-15T03:33:40.651Z,8.36
2023-01-15T03:36:07.842Z,8.33
2023-01-15T03:38:36.915Z,8.28
2023-01-15T03:41:16.573Z,8.18
2023-01-15T03:43:55.485Z,8.09
2023-01-15T03:46:59.700Z,8.00
2023-01-15T03:49:33.212Z,7.92
2023-01-15T03:52:03.832Z,7.89
2023-01-15T03:54:41.302Z,7.75
2023-01-15T03:57:13.876Z,7.77
2023-01-15T03:59:58.129Z,7.78
2023-01-15T04:02:25.339Z,7.77
2023-01-15T04:04:53.511Z,7.76
2023-01-15T04:07:20.615Z,7.75
2023-01-15T04:09:47.266Z,7.70
2023-01-15T04:12:13.764Z,7.72
2023-01-15T04:14:40.335Z,7.75
2023-01-15T04:17:07.102Z,7.72
2023-01-15T04:19:33.856Z,7.75
2023-01-15T04:22:00.332Z,7.73
2023-01-15T04:24:26.958Z,7.70
2023-01-15T04:26:53.483Z,7.72
2023-01-15T04:29:20.181Z,7.71
2023-01-15T04:31:46.775Z,7.71
2023-01-15T04:34:13.250Z,7.74
2023-01-15T04:36:39.736Z,7.77
2023-01-15T04:39:06.274Z,7.75
2023-01-15T04:41:51.387Z,7.74
2023-01-15T04:44:17.963Z,7.76
2023-01-15T04:46:45.935Z,7.77
2023-01-15T04:49:17.122Z,7.72
2023-01-15T04:51:44.321Z,7.75
2023-01-15T04:54:12.689Z,7.78
2023-01-15T04:56:41.530Z,7.78
2023-01-15T04:59:08.607Z,7.80
2023-01-15T05:01:35.472Z,7.79
2023-01-15T05:04:02.205Z,7.80
2023-01-15T05:06:29.196Z,7.80
2023-01-15T05:08:55.664Z,7.81
2023-01-15T05:11:22.168Z,7.78
2023-01-15T05:13:48.631Z,7.76
2023-01-15T05:16:26.726Z,7.73
2023-01-15T05:18:54.712Z,7.72
2023-01-15T05:21:26.747Z,7.66
2023-01-15T05:23:55.893Z,7.64
2023-01-15T05:26:22.855Z,7.61
2023-01-15T05:28:49.800Z,7.60
2023-01-15T05:31:18.298Z,7.56
2023-01-15T05:33:46.933Z,7.55
2023-01-15T05:36:22.264Z,7.53
2023-01-15T05:38:48.776Z,7.53
2023-01-15T05:41:36.558Z,7.51
2023-01-15T05:44:05.792Z,7.49
2023-01-15T05:46:33.917Z,7.48
2023-01-15T05:49:07.121Z,7.48
2023-01-15T05:51:35.676Z,7.48
2023-01-15T05:54:02.637Z,7.48
2023-01-15T05:56:29.101Z,7.50
2023-01-15T05:58:55.725Z,7.49
2023-01-15T06:01:22.702Z,7.49
2023-01-15T06:03:49.451Z,7.51
2023-01-15T06:06:18.090Z,7.53
2023-01-15T06:08:45.321Z,7.53
2023-01-15T06:11:12.028Z,7.55
2023-01-15T06:13:41.861Z,7.56
2023-01-15T06:16:10.787Z,7.56
2023-01-15T06:18:38.649Z,7.56
2023-01-15T06:21:06.790Z,7.58
2023-01-15T06:23:36.609Z,7.58
2023-01-15T06:26:05.064Z,7.55
2023-01-15T06:28:31.777Z,7.55
2023-01-15T06:30:58.234Z,7.55
2023-01-15T06:33:24.809Z,7.55
2023-01-15T06:35:52.304Z,7.56
2023-01-15T06:38:18.836Z,7.56
2023-01-15T06:40:45.340Z,7.59
2023-01-15T06:43:30.510Z,7.61
2023-01-15T06:46:16.292Z,7.62
2023-01-15T06:48:43.276Z,7.61
2023-01-15T06:51:09.936Z,7.60
2023-01-15T06:53:36.409Z,7.60
2023-01-15T06:56:02.884Z,7.60
2023-01-15T06:58:29.309Z,7.59
2023-01-15T07:00:56.709Z,7.59
2023-01-15T07:03:23.646Z,7.59
2023-01-15T07:05:50.194Z,7.57
2023-01-15T07:08:16.656Z,7.55
2023-01-15T07:10:43.313Z,7.55
2023-01-15T07:13:10.261Z,7.55
2023-01-15T07:15:39.078Z,7.55
2023-01-15T07:18:05.700Z,7.54
2023-01-15T07:20:32.197Z,7.50
2023-01-15T07:22:58.712Z,7.52
2023-01-15T07:25:25.198Z,7.51
2023-01-15T07:27:51.722Z,7.52
2023-01-15T07:30:18.398Z,7.51
2023-01-15T07:32:44.866Z,7.49
2023-01-15T07:35:11.334Z,7.49
2023-01-15T07:37:39.603Z,7.48
2023-01-15T07:40:06.297Z,7.50
2023-01-15T07:42:51.268Z,7.51
2023-01-15T07:45:36.427Z,7.53
2023-01-15T07:48:21.508Z,7.54
2023-01-15T07:50:48.013Z,7.52
2023-01-15T07:53:14.490Z,7.54
2023-01-15T07:55:40.978Z,7.55
2023-01-15T07:58:07.442Z,7.55
2023-01-15T08:00:33.929Z,7.57
2023-01-15T08:03:00.391Z,7.57
2023-01-15T08:05:26.870Z,7.58
2023-01-15T08:07:53.367Z,7.58
2023-01-15T08:10:19.997Z,7.59
2023-01-15T08:13:08.060Z,7.58
2023-01-15T08:15:38.625Z,7.59
2023-01-15T08:18:05.252Z,7.57
2023-01-15T08:20:31.785Z,7.58
2023-01-15T08:23:01.062Z,7.60
2023-01-15T08:25:27.645Z,7.61
2023-01-15T08:27:54.998Z,7.60
2023-01-15T08:30:24.466Z,7.66
2023-01-15T08:32:51.102Z,7.68
2023-01-15T08:35:17.665Z,7.68
2023-01-15T08:37:44.260Z,7.73
2023-01-15T08:40:11.725Z,7.73
2023-01-15T08:42:38.649Z,7.76
2023-01-15T08:45:08.815Z,7.78
2023-01-15T08:47:37.269Z,7.79
2023-01-15T08:50:05.110Z,7.82
2023-01-15T08:52:31.567Z,7.84
2023-01-15T08:54:58.080Z,7.89
2023-01-15T08:57:24.609Z,7.90
2023-01-15T08:59:51.082Z,7.91
2023-01-15T09:02:18.359Z,7.94
2023-01-15T09:04:45.884Z,7.98
2023-01-15T09:07:12.932Z,8.00
2023-01-15T09:09:39.472Z,8.03
2023-01-15T09:12:06.006Z,8.05
2023-01-15T09:14:58.673Z,8.09
2023-01-15T09:17:18.886Z,8.21
2023-01-15T09:19:46.080Z,8.22
2023-01-15T09:22:12.552Z,8.19
2023-01-15T09:24:39.039Z,8.20
2023-01-15T09:27:05.502Z,8.19
2023-01-15T09:29:31.952Z,8.19
2023-01-15T09:31:58.418Z,8.14
2023-01-15T09:34:24.862Z,8.16
2023-01-15T09:36:51.357Z,8.17
2023-01-15T09:39:17.890Z,8.19
2023-01-15T09:42:05.590Z,8.19
2023-01-15T09:44:43.482Z,8.20
2023-01-15T09:47:18.788Z,8.22
2023-01-15T09:50:25.821Z,8.25
2023-01-15T09:53:17.862Z,8.28
2023-01-15T09:55:49.009Z,8.31
2023-01-15T09:58:18.023Z,8.31
2023-01-15T10:00:47.276Z,8.29
2023-01-15T10:03:32.338Z,8.31
2023-01-15T10:05:58.773Z,8.31
2023-01-15T10:08:41.216Z,8.34
2023-01-15T10:11:17.659Z,8.30
2023-01-15T10:14:06.693Z,8.30
2023-01-15T10:16:36.059Z,8.30
2023-01-15T10:19:03.053Z,8.29
2023-01-15T10:21:45.412Z,8.31
2023-01-15T10:24:18.506Z,8.34
2023-01-15T10:26:54.841Z,8.36
2023-01-15T10:29:53.062Z,8.36
2023-01-15T10:32:37.983Z,8.36
2023-01-15T10:35:52.647Z,8.36
2023-01-15T10:38:48.596Z,8.37
2023-01-15T10:41:37.082Z,8.36
2023-01-15T10:44:18.083Z,8.37
2023-01-15T10:46:50.205Z,8.39
2023-01-15T10:49:17.868Z,8.41
2023-01-15T10:51:45.406Z,8.41
2023-01-15T10:54:28.826Z,8.48
2023-01-15T10:57:06.080Z,8.51
2023-01-15T11:00:11.112Z,8.51
2023-01-15T11:03:04.004Z,8.53
2023-01-15T11:05:32.263Z,8.54
2023-01-15T11:08:39.363Z,8.57
2023-01-15T11:10:45.913Z,8.59
2023-01-15T11:13:39.155Z,8.63
2023-01-15T11:16:44.534Z,8.65
2023-01-15T11:19:42.402Z,8.66
2023-01-15T11:22:11.581Z,8.67
2023-01-15T11:24:45.981Z,8.70
2023-01-15T11:27:18.686Z,8.70
2023-01-15T11:29:45.727Z,8.73
2023-01-15T11:32:22.675Z,8.73
2023-01-15T11:35:16.943Z,8.72
2023-01-15T11:37:43.476Z,8.73
2023-01-15T11:40:17.575Z,8.69
2023-01-15T11:43:07.850Z,8.71
2023-01-15T11:45:52.986Z,8.71
2023-01-15T11:48:42.583Z,8.72
2023-01-15T11:51:14.170Z,8.73
2023-01-15T11:53:46.249Z,8.75
2023-01-15T11:56:16.167Z,8.76
2023-01-15T11:58:48.113Z,8.80
2023-01-15T12:01:23.436Z,8.82
2023-01-15T12:03:50.060Z,8.88
2023-01-15T12:06:19.719Z,8.89
2023-01-15T12:09:00.396Z,8.93
2023-01-15T12:12:02.374Z,8.99
2023-01-15T12:14:50.386Z,9.02
2023-01-15T12:17:37.427Z,9.04
2023-01-15T12:20:24.759Z,9.07
2023-01-15T12:23:09.144Z,9.07
2023-01-15T12:25:51.971Z,9.08
2023-01-15T12:28:24.547Z,9.10
2023-01-15T12:31:08.733Z,9.07
2023-01-15T12:33:45.450Z,9.04
2023-01-15T12:36:17.994Z,9.00
2023-01-15T12:38:44.341Z,8.99
2023-01-15T12:41:14.094Z,8.95
2023-01-15T12:44:03.458Z,8.97
2023-01-15T12:46:32.151Z,8.94
2023-01-15T12:49:06.366Z,8.95
2023-01-15T12:51:38.859Z,8.93
2023-01-15T12:54:13.646Z,8.92
2023-01-15T12:57:02.842Z,8.87
2023-01-15T12:59:48.478Z,8.86
2023-01-15T13:02:22.218Z,8.87
2023-01-15T13:04:53.626Z,8.85
2023-01-15T13:07:45.165Z,8.84
2023-01-15T13:10:25.096Z,8.82
2023-01-15T13:12:55.975Z,8.83
2023-01-15T13:15:27.276Z,8.83
2023-01-15T13:18:26.624Z,8.82
2023-01-15T13:20:55.162Z,8.79
2023-01-15T13:23:39.168Z,8.78
2023-01-15T13:26:22.333Z,8.76
2023-01-15T13:29:10.395Z,8.75
2023-01-15T13:31:51.062Z,8.77
2023-01-15T13:34:42.545Z,8.82
2023-01-15T13:37:17.931Z,8.80
2023-01-15T13:39:45.596Z,8.82
2023-01-15T13:42:34.380Z,8.82
2023-01-15T13:45:19.107Z,8.85
2023-01-15T13:47:52.686Z,8.85
2023-01-15T13:50:33.895Z,8.88
2023-01-15T13:53:40.858Z,8.90
2023-01-15T13:56:09.632Z,8.93
2023-01-15T13:59:01.247Z,8.91
2023-01-15T14:01:30.737Z,8.87
2023-01-15T14:04:09.360Z,8.85
2023-01-15T14:06:48.826Z,8.82
2023-01-15T14:09:18.196Z,8.77
2023-01-15T14:12:06.673Z,8.74
2023-01-15T14:14:57.592Z,8.71
2023-01-15T14:18:07.230Z,8.64
2023-01-15T14:20:44.451Z,8.56
2023-01-15T14:23:46.004Z,8.52
2023-01-15T14:26:18.896Z,8.48
2023-01-15T14:28:57.939Z,8.43
2023-01-15T14:31:40.847Z,8.39
2023-01-15T14:34:20.637Z,8.35
2023-01-15T14:37:04.334Z,8.37
2023-01-15T14:39:36.744Z,8.32
2023-01-15T14:42:26.336Z,8.27
2023-01-15T14:44:58.179Z,8.19
2023-01-15T14:47:28.955Z,8.19
2023-01-15T14:50:02.078Z,8.15
2023-01-15T14:52:28.620Z,8.12
2023-01-15T14:54:55.768Z,8.08
2023-01-15T14:57:23.661Z,8.05
2023-01-15T14:59:55.235Z,8.01
2023-01-15T15:02:31.701Z,7.99
2023-01-15T15:04:59.194Z,7.96
2023-01-15T15:07:36.062Z,7.93
2023-01-15T15:10:31.885Z,7.89
2023-01-15T15:13:05.225Z,7.88
2023-01-15T15:15:39.796Z,7.86
2023-01-15T15:18:12.442Z,7.81
2023-01-15T15:20:41.855Z,7.78
2023-01-15T15:23:18.889Z,7.72
2023-01-15T15:25:52.878Z,7.70
2023-01-15T15:28:19.382Z,7.71
2023-01-15T15:30:46.522Z,7.66
2023-01-15T15:33:20.942Z,7.61
2023-01-15T15:35:50.806Z,7.63
2023-01-15T15:38:20.577Z,7.61
2023-01-15T15:40:53.252Z,7.60
2023-01-15T15:44:00.967Z,7.64
2023-01-15T15:46:50.624Z,7.66
2023-01-15T15:49:17.611Z,7.68
2023-01-15T15:51:54.205Z,7.65
2023-01-15T15:54:23.385Z,7.65
2023-01-15T15:56:55.834Z,7.61
2023-01-15T15:59:30.854Z,7.67
2023-01-15T16:02:00.410Z,7.65
2023-01-15T16:04:27.305Z,7.64
2023-01-15T16:06:53.803Z,7.69
2023-01-15T16:09:22.157Z,7.68
2023-01-15T16:11:50.225Z,7.70
2023-01-15T16:14:17.275Z,7.73
2023-01-15T16:16:44.255Z,7.75
2023-01-15T16:19:16.491Z,7.75
2023-01-15T16:21:43.103Z,7.78
2023-01-15T16:24:22.710Z,7.79
2023-01-15T16:26:57.555Z,7.77
2023-01-15T16:29:29.771Z,7.82
2023-01-15T16:31:59.733Z,7.81
2023-01-15T16:34:31.052Z,7.82
2023-01-15T16:36:58.096Z,7.82
2023-01-15T16:39:26.667Z,7.84
2023-01-15T16:41:59.764Z,7.87
2023-01-15T16:44:44.055Z,7.86
2023-01-15T16:47:22.827Z,7.89
2023-01-15T16:49:49.576Z,7.88
2023-01-15T16:52:54.990Z,7.87
2023-01-15T16:55:33.548Z,7.88
2023-01-15T16:58:12.229Z,7.88
2023-01-15T17:00:40.925Z,7.88
2023-01-15T17:03:24.444Z,7.91
2023-01-15T17:05:56.576Z,7.89
2023-01-15T17:08:32.381Z,7.88
2023-01-15T17:11:01.125Z,7.88
2023-01-15T17:13:38.845Z,7.84
2023-01-15T17:16:19.982Z,7.83
2023-01-15T17:18:47.892Z,7.82
2023-01-15T17:21:18.777Z,7.78
2023-01-15T17:23:46.107Z,7.79
2023-01-15T17:26:19.186Z,7.77
2023-01-15T17:28:46.654Z,7.75
2023-01-15T17:31:33.957Z,7.75
2023-01-15T17:34:02.284Z,7.76
2023-01-15T17:36:29.380Z,7.73
2023-01-15T17:38:56.076Z,7.75
2023-01-15T17:41:23.400Z,7.76
2023-01-15T17:43:50.411Z,7.76
2023-01-15T17:46:17.359Z,7.78
2023-01-15T17:48:44.236Z,7.82
2023-01-15T17:51:13.659Z,7.84
2023-01-15T17:53:40.280Z,7.83
2023-01-15T17:56:25.820Z,7.85
2023-01-15T17:59:11.137Z,7.86
2023-01-15T18:01:59.446Z,7.82
2023-01-15T18:04:51.160Z,7.85
2023-01-15T18:07:21.707Z,7.84
2023-01-15T18:09:50.297Z,7.81
2023-01-15T18:12:16.815Z,7.82
2023-01-15T18:14:43.347Z,7.81
2023-01-15T18:17:09.935Z,7.83
2023-01-15T18:19:36.390Z,7.81
2023-01-15T18:22:02.940Z,7.79
2023-01-15T18:24:29.462Z,7.81
2023-01-15T18:26:55.993Z,7.79
2023-01-15T18:29:22.489Z,7.79
2023-01-15T18:31:49.020Z,7.78
2023-01-15T18:34:15.511Z,7.78
2023-01-15T18:36:42.022Z,7.76
2023-01-15T18:39:11.939Z,7.75
2023-01-15T18:41:38.682Z,7.74
2023-01-15T18:44:32.186Z,7.74
2023-01-15T18:47:01.127Z,7.73
2023-01-15T18:49:28.450Z,7.73
2023-01-15T18:52:13.738Z,7.72
2023-01-15T18:54:40.219Z,7.71
2023-01-15T18:57:06.719Z,7.70
2023-01-15T18:59:33.288Z,7.76
2023-01-15T19:02:00.209Z,7.76
2023-01-15T19:04:26.929Z,7.73
2023-01-15T19:06:53.938Z,7.78
2023-01-15T19:09:21.350Z,7.79
2023-01-15T19:11:47.851Z,7.79
2023-01-15T19:14:32.959Z,7.79
2023-01-15T19:17:18.192Z,7.77
2023-01-15T19:19:44.653Z,7.80
2023-01-15T19:22:29.686Z,7.82
2023-01-15T19:24:56.492Z,7.79
2023-01-15T19:27:23.046Z,7.83
2023-01-15T19:29:49.501Z,7.83
2023-01-15T19:32:15.959Z,7.81
2023-01-15T19:34:42.452Z,7.86
2023-01-15T19:37:08.939Z,7.84
2023-01-15T19:39:35.436Z,7.87
2023-01-15T19:42:20.515Z,7.90
2023-01-15T19:45:05.588Z,7.87
2023-01-15T19:47:54.067Z,7.89
2023-01-15T19:50:23.954Z,7.86
2023-01-15T19:52:52.724Z,7.83
2023-01-15T19:55:20.477Z,7.85
2023-01-15T19:57:48.864Z,7.83
2023-01-15T20:00:17.699Z,7.84
2023-01-15T20:02:45.693Z,7.77
2023-01-15T20:05:13.492Z,7.79
2023-01-15T20:07:40.211Z,7.77
2023-01-15T20:10:09.603Z,7.73
2023-01-15T20:12:54.692Z,7.72
2023-01-15T20:15:21.298Z,7.66
2023-01-15T20:17:47.846Z,7.64
2023-01-15T20:20:14.709Z,7.65
2023-01-15T20:22:41.175Z,7.64
2023-01-15T20:25:08.276Z,7.61
2023-01-15T20:27:37.431Z,7.58
2023-01-15T20:30:09.344Z,7.58
2023-01-15T20:32:37.074Z,7.59
2023-01-15T20:35:06.575Z,7.58
2023-01-15T20:37:33.363Z,7.57
2023-01-15T20:39:59.840Z,7.58
2023-01-15T20:42:46.935Z,7.58
2023-01-15T20:45:15.179Z,7.53
2023-01-15T20:48:01.266Z,7.52
2023-01-15T20:50:30.372Z,7.50
2023-01-15T20:52:58.737Z,7.45
2023-01-15T20:55:45.592Z,7.43
2023-01-15T20:58:16.375Z,7.40
2023-01-15T21:00:42.951Z,7.40
2023-01-15T21:03:11.060Z,7.36
2023-01-15T21:05:37.640Z,7.32
2023-01-15T21:08:04.290Z,7.30
2023-01-15T21:10:30.795Z,7.28
2023-01-15T21:12:57.268Z,7.25
2023-01-15T21:15:23.753Z,7.23
2023-01-15T21:17:50.235Z,7.24
2023-01-15T21:20:17.014Z,7.22
2023-01-15T21:22:44.353Z,7.18
2023-01-15T21:25:11.268Z,7.15
2023-01-15T21:27:38.024Z,7.11
2023-01-15T21:30:06.077Z,7.11
2023-01-15T21:32:32.871Z,7.10
2023-01-15T21:34:59.338Z,7.10
2023-01-15T21:37:25.863Z,7.10
2023-01-15T21:39:52.324Z,7.10
2023-01-15T21:42:39.452Z,7.08
2023-01-15T21:45:06.740Z,7.09
2023-01-15T21:47:33.872Z,7.09
2023-01-15T21:50:00.360Z,7.09
2023-01-15T21:52:29.383Z,7.08
2023-01-15T21:54:55.939Z,7.04
2023-01-15T21:57:22.476Z,7.01
2023-01-15T21:59:49.137Z,7.01
2023-01-15T22:02:19.073Z,7.00
2023-01-15T22:04:46.010Z,6.98
2023-01-15T22:07:12.661Z,6.97
2023-01-15T22:09:39.147Z,6.93
2023-01-15T22:12:06.010Z,6.91
2023-01-15T22:14:33.075Z,6.89
2023-01-15T22:17:02.242Z,6.87
2023-01-15T22:19:30.295Z,6.83
2023-01-15T22:22:02.746Z,6.78
2023-01-15T22:24:31.091Z,6.74
2023-01-15T22:26:57.746Z,6.75
2023-01-15T22:29:32.653Z,6.73
2023-01-15T22:31:59.630Z,6.71
2023-01-15T22:34:27.545Z,6.67
2023-01-15T22:36:54.159Z,6.67
2023-01-15T22:39:21.394Z,6.68
2023-01-15T22:42:06.359Z,6.69
2023-01-15T22:44:33.612Z,6.67
2023-01-15T22:47:00.156Z,6.67
2023-01-15T22:49:27.359Z,6.66
2023-01-15T22:51:53.955Z,6.65
2023-01-15T22:54:20.516Z,6.65
2023-01-15T22:56:47.187Z,6.64
2023-01-15T22:59:13.959Z,6.63
2023-01-15T23:01:40.931Z,6.60
2023-01-15T23:04:15.829Z,6.57
2023-01-15T23:06:42.600Z,6.54
2023-01-15T23:09:09.047Z,6.54
2023-01-15T23:11:35.527Z,6.53
2023-01-15T23:14:02.194Z,6.53
2023-01-15T23:16:28.670Z,6.51
2023-01-15T23:18:55.385Z,6.48
2023-01-15T23:21:23.967Z,6.46
2023-01-15T23:23:55.076Z,6.44
2023-01-15T23:26:22.091Z,6.41
2023-01-15T23:28:48.642Z,6.40
2023-01-15T23:31:15.144Z,6.36
2023-01-15T23:33:41.712Z,6.38
2023-01-15T23:36:09.755Z,6.39
2023-01-15T23:38:36.743Z,6.39
2023-01-15T23:41:11.237Z,6.40
2023-01-15T23:43:56.874Z,6.39
2023-01-15T23:46:32.970Z,6.38
2023-01-15T23:49:00.323Z,6.37
2023-01-15T23:51:26.905Z,6.37
2023-01-15T23:53:53.415Z,6.36
2023-01-15T23:56:19.928Z,6.34
2023-01-15T23:58:47.346Z,6.31
